Terminal Aerodrome Forecast
Issued by NWS

Home | Current Version | Previous Version | Text Only | Print | Product List | Glossary On
Versions: 1 2 3 4 5 6 7 8 9 10 11 12 13 14 15 16 17 18 19 20 21 22 23 24 25
000
FTUS46 KPDT 202300
TAFDLS
TAF
KDLS 202322Z 2100/2124 VRB03KT 6SM BR BKN100
     FM210300 12003KT 4SM BR BKN050 OVC080
     FM210900 11003KT 3SM BR BKN020 OVC030
     FM211500 07003KT 5SM BR SCT030 OVC060
     FM212000 08004KT 6SM -SHRA BR BKN030 OVC050=

USA.gov is the U.S. government's official web portal to all federal, state and local government web resources and services.